createdAt,value
2019-04-27T00:04:38.914Z,90
2019-04-27T00:10:13.482Z,88
2019-04-27T00:15:44.270Z,88
2019-04-27T00:21:17.016Z,89
2019-04-27T00:26:49.762Z,88
2019-04-27T00:32:23.102Z,89
2019-04-27T00:37:55.099Z,89
2019-04-27T00:43:27.806Z,89
2019-04-27T00:49:00.524Z,90
2019-04-27T00:54:33.958Z,89
2019-04-27T01:00:05.919Z,89
2019-04-27T01:05:38.603Z,89
2019-04-27T01:11:11.315Z,89
2019-04-27T01:16:44.075Z,88
2019-04-27T01:22:16.800Z,89
2019-04-27T01:27:49.521Z,89
2019-04-27T01:33:22.215Z,89
2019-04-27T01:38:54.873Z,90
2019-04-27T01:44:29.336Z,90
2019-04-27T01:50:00.326Z,90
2019-04-27T01:55:33.084Z,89
2019-04-27T02:01:05.662Z,89
2019-04-27T02:06:38.596Z,88
2019-04-27T02:12:11.111Z,89
2019-04-27T02:17:43.766Z,89
2019-04-27T02:23:16.478Z,89
2019-04-27T02:28:49.590Z,89
2019-04-27T02:34:21.865Z,91
2019-04-27T02:39:54.596Z,91
2019-04-27T02:45:30.110Z,91
2019-04-27T02:51:00.039Z,91
2019-04-27T02:56:32.574Z,92
2019-04-27T03:02:05.167Z,92
2019-04-27T03:07:39.796Z,92
2019-04-27T03:13:11.190Z,92
2019-04-27T03:18:43.252Z,91
2019-04-27T03:24:15.973Z,91
2019-04-27T03:29:49.836Z,92
2019-04-27T03:35:22.910Z,92
2019-04-27T03:40:54.160Z,91
2019-04-27T03:46:26.891Z,92
2019-04-27T03:52:00.219Z,92
2019-04-27T03:57:32.309Z,91
2019-04-27T04:03:04.989Z,91
2019-04-27T04:08:39.653Z,91
2019-04-27T04:14:10.415Z,91
2019-04-27T04:19:51.769Z,91
2019-04-27T04:25:17.256Z,90
2019-04-27T04:30:50.823Z,91
2019-04-27T04:36:24.394Z,91
2019-04-27T04:41:59.640Z,92
2019-04-27T04:47:32.746Z,92
2019-04-27T04:53:04.897Z,91
2019-04-27T04:58:39.220Z,91
2019-04-27T05:04:12.005Z,91
2019-04-27T05:09:45.575Z,91
2019-04-27T05:15:20.657Z,91
2019-04-27T05:20:52.729Z,90
2019-04-27T05:26:26.262Z,91
2019-04-27T05:32:01.168Z,91
2019-04-27T05:37:33.446Z,91
2019-04-27T05:43:02.538Z,91
2019-04-27T05:48:36.063Z,91
2019-04-27T05:54:09.733Z,90
2019-04-27T05:59:43.248Z,90
2019-04-27T06:05:18.778Z,91
2019-04-27T06:10:45.969Z,91
2019-04-27T06:16:19.618Z,91
2019-04-27T06:21:53.163Z,91
2019-04-27T06:27:30.185Z,91
2019-04-27T06:33:00.318Z,91
2019-04-27T06:38:33.963Z,91
2019-04-27T06:44:09.324Z,92
2019-04-27T06:49:41.101Z,91
2019-04-27T06:55:14.672Z,91
2019-04-27T07:00:49.669Z,90
2019-04-27T07:06:21.919Z,89
2019-04-27T07:11:55.567Z,89
2019-04-27T07:17:29.252Z,88
2019-04-27T07:23:03.167Z,89
2019-04-27T07:28:36.460Z,87
2019-04-27T07:34:10.136Z,87
2019-04-27T07:39:43.778Z,88
2019-04-27T07:45:17.809Z,87
2019-04-27T07:50:51.223Z,88
2019-04-27T07:56:24.922Z,87
2019-04-27T08:01:59.084Z,87
2019-04-27T08:07:32.270Z,87
2019-04-27T08:13:05.986Z,87
2019-04-27T08:18:39.681Z,87
2019-04-27T08:24:13.264Z,86
2019-04-27T08:29:48.590Z,86
2019-04-27T08:35:21.547Z,86
2019-04-27T08:40:54.414Z,85
2019-04-27T08:46:28.599Z,85
2019-04-27T08:52:02.017Z,85
2019-04-27T08:57:35.572Z,84
2019-04-27T09:03:09.556Z,83
2019-04-27T09:08:49.495Z,82
2019-04-27T09:14:21.784Z,81
2019-04-27T09:19:55.647Z,80
2019-04-27T09:25:29.758Z,80
2019-04-27T09:31:03.684Z,81
2019-04-27T09:36:37.616Z,81
2019-04-27T09:42:11.838Z,80
2019-04-27T09:47:46.789Z,78
2019-04-27T09:53:19.972Z,78
2019-04-27T09:58:55.820Z,76
2019-04-27T10:04:28.754Z,77
2019-04-27T10:10:03.317Z,75
2019-04-27T10:15:37.852Z,75
2019-04-27T10:21:12.681Z,74
2019-04-27T10:26:47.647Z,72
2019-04-27T10:32:22.513Z,72
2019-04-27T10:37:57.428Z,71
2019-04-27T10:43:36.731Z,71
2019-04-27T10:49:11.509Z,72
2019-04-27T10:54:46.118Z,72
2019-04-27T11:00:20.762Z,72
2019-04-27T11:05:56.943Z,75
2019-04-27T11:11:29.782Z,79
2019-04-27T11:17:04.098Z,77
2019-04-27T11:22:38.339Z,76
2019-04-27T11:28:12.616Z,75
2019-04-27T11:33:46.884Z,74
2019-04-27T11:39:21.324Z,72
2019-04-27T11:44:58.190Z,72
2019-04-27T11:50:30.192Z,72
2019-04-27T11:56:04.842Z,70
2019-04-27T12:01:39.564Z,69
2019-04-27T12:07:14.421Z,67
2019-04-27T12:12:49.710Z,67
2019-04-27T12:18:24.849Z,68
2019-04-27T12:23:59.804Z,75
2019-04-27T12:29:34.697Z,75
2019-04-27T12:35:09.263Z,74
2019-04-27T12:40:43.725Z,78
2019-04-27T12:46:18.299Z,81
2019-04-27T12:51:52.399Z,81
2019-04-27T12:57:27.619Z,83
2019-04-27T13:03:00.627Z,83
2019-04-27T13:08:35.701Z,83
2019-04-27T13:14:09.037Z,81
2019-04-27T13:19:43.459Z,78
2019-04-27T13:25:17.875Z,79
2019-04-27T13:30:52.304Z,78
2019-04-27T13:36:26.716Z,80
2019-04-27T13:42:00.830Z,80
2019-04-27T13:47:36.613Z,83
2019-04-27T13:53:08.918Z,85
2019-04-27T13:58:42.840Z,88
2019-04-27T14:04:16.806Z,88
2019-04-27T14:09:46.388Z,85
2019-04-27T14:15:20.336Z,84
2019-04-27T14:20:54.392Z,84
2019-04-27T14:26:28.539Z,83
2019-04-27T14:32:02.430Z,83
2019-04-27T14:37:36.415Z,82
2019-04-27T14:43:10.353Z,80
2019-04-27T14:48:44.383Z,78
2019-04-27T14:54:18.840Z,77
2019-04-27T14:59:52.453Z,76
2019-04-27T15:05:26.506Z,75
2019-04-27T15:11:00.639Z,75
2019-04-27T15:16:37.760Z,76
2019-04-27T15:22:12.586Z,75
2019-04-27T15:27:42.959Z,75
2019-04-27T15:33:17.609Z,75
2019-04-27T15:38:53.656Z,74
2019-04-27T15:44:25.276Z,72
2019-04-27T15:49:59.433Z,68
2019-04-27T15:55:36.754Z,66
2019-04-27T16:01:11.220Z,67
2019-04-27T16:06:42.755Z,67
2019-04-27T16:12:18.086Z,66
2019-04-27T16:17:55.733Z,66
2019-04-27T16:23:24.865Z,64
2019-04-27T16:28:59.147Z,63
2019-04-27T16:34:37.733Z,65
2019-04-27T16:40:10.719Z,65
2019-04-27T16:45:43.167Z,66
2019-04-27T16:51:18.390Z,66
2019-04-27T16:56:58.208Z,67
2019-04-27T17:02:26.103Z,66
2019-04-27T17:08:00.244Z,63
2019-04-27T17:13:34.432Z,62
2019-04-27T17:30:19.500Z,70
2019-04-27T17:35:53.212Z,69
2019-04-27T17:41:28.265Z,66
2019-04-27T17:47:01.343Z,68
2019-04-27T17:52:37.784Z,69
2019-04-27T17:58:09.864Z,67
2019-04-27T18:03:43.900Z,65
2019-04-27T18:09:22.004Z,66
2019-04-27T18:14:55.685Z,66
2019-04-27T18:20:29.486Z,66
2019-04-27T18:26:03.101Z,66
2019-04-27T18:31:38.300Z,65
2019-04-27T18:37:10.545Z,65
2019-04-27T18:42:44.105Z,64
2019-04-27T18:48:18.654Z,63
2019-04-27T18:53:54.069Z,61
2019-04-27T18:59:24.919Z,65
2019-04-27T19:04:59.519Z,62
2019-04-27T19:10:32.308Z,64
2019-04-27T19:16:05.846Z,62
2019-04-27T19:21:39.434Z,63
2019-04-27T19:27:17.721Z,64
2019-04-27T19:32:46.729Z,65
2019-04-27T19:38:20.328Z,66
2019-04-27T19:43:54.010Z,66
2019-04-27T19:49:29.349Z,66
2019-04-27T19:55:01.143Z,67
2019-04-27T20:00:34.579Z,70
2019-04-27T20:06:08.121Z,71
2019-04-27T20:11:41.633Z,72
2019-04-27T20:17:15.000Z,73
2019-04-27T20:22:48.416Z,72
2019-04-27T20:28:23.056Z,71
2019-04-27T20:33:55.488Z,73
2019-04-27T20:39:29.233Z,81
2019-04-27T20:45:02.674Z,81
2019-04-27T20:50:35.849Z,80
2019-04-27T20:56:09.009Z,81
2019-04-27T21:01:41.807Z,76
2019-04-27T21:07:14.706Z,76
2019-04-27T21:12:47.595Z,76
2019-04-27T21:18:21.679Z,72
2019-04-27T21:46:09.489Z,60
2019-04-27T21:51:42.705Z,58
2019-04-27T21:57:15.877Z,67
2019-04-27T22:02:51.030Z,68
2019-04-27T22:08:22.095Z,70
2019-04-27T22:13:55.307Z,70
2019-04-27T22:19:28.478Z,71
2019-04-27T22:25:01.710Z,72
2019-04-27T22:30:34.800Z,72
2019-04-27T22:36:10.799Z,73
2019-04-27T22:41:41.730Z,73
2019-04-27T22:47:14.437Z,71
2019-04-27T22:52:47.379Z,72
2019-04-27T22:58:21.761Z,74
2019-04-27T23:03:53.777Z,74
2019-04-27T23:09:26.850Z,75
2019-04-27T23:14:59.869Z,75
2019-04-27T23:20:33.118Z,75
2019-04-27T23:26:06.260Z,78
2019-04-27T23:31:40.773Z,76
2019-04-27T23:37:12.704Z,75
2019-04-27T23:42:46.029Z,71
2019-04-27T23:48:19.170Z,66
2019-04-27T23:53:52.388Z,76
2019-04-27T23:59:25.524Z,74
